KWYS/WYS METAR and TAF weather

Enter ICAO airport designator
Station Type Date Time Source
KWYS METAR 2021/09/20 05:50 UTC NOAA

KWYS 200550Z AUTO 00000KT 10SM BKN015 OVC055 01/01 A3012 RMK AO2


Station Type Date Time Source
KWYS Decoded METAR 2021/09/20 05:50 UTC NOAA

West Yellowstone, MT, United States (KWYS) 44-41N 111-07W
Sep 20, 2021 - 01:50 AM EDT / 2021.09.20 0550 UTC
Wind: Calm:0
Visibility: 10 mile(s):0
Sky conditions: overcast
Temperature: 33 F (1 C)
Dew Point: 33 F (1 C)
Relative Humidity: 100%
Pressure (altimeter): 30.12 in. Hg (1019 hPa)
ob: KWYS 200550Z AUTO 00000KT 10SM BKN015 OVC055 01/01 A3012 RMK AO2
cycle: 6

Station Type Date Time Source
KWYS TAF 2021/09/20 06:45 UTC NOAA

TAF KWYS 200545Z 2006/2106 VRB03KT P6SM SCT015 BKN040
TEMPO 2006/2010 -SHSN BKN010
FM201100 VRB05KT P6SM VCSH SCT020 BKN040 PROB30 2018/2023 3SM -SHSNRA BKN020
FM210200 VRB05KT P6SM SCT080

Example: see airport list